Time;durP1;ratioP1;P1;durP2;ratioP2;P2;SDS_P1;SDS_P2;PMS_P1;PMS_P2;Temp;Humidity;BMP_temperature;BMP_pressure;BME280_temperature;BME280_humidity;BME280_pressure;Samples;Min_cycle;Max_cycle;Signal;HPM_P1;HPM_P2
2021/11/21 00:02:01;;;;;;;65.85;34.47;;;10.40;99.90;;;;;;5049870;28;20023;-79
2021/11/21 00:04:27;;;;;;;78.70;37.47;;;10.50;99.90;;;;;;5070107;28;20025;-80
2021/11/21 00:06:53;;;;;;;69.18;35.67;;;10.40;99.90;;;;;;5058352;28;20155;-79
2021/11/21 00:09:19;;;;;;;67.00;36.63;;;10.40;99.90;;;;;;5054446;28;20031;-80
2021/11/21 00:11:45;;;;;;;70.97;35.65;;;10.30;99.90;;;;;;5068480;28;20025;-80
2021/11/21 00:14:11;;;;;;;68.03;35.17;;;10.30;99.90;;;;;;5054034;28;20031;-80
2021/11/21 00:16:37;;;;;;;68.60;35.03;;;10.40;99.90;;;;;;5055452;28;20033;-80
2021/11/21 00:19:03;;;;;;;65.88;34.88;;;10.40;99.90;;;;;;5052025;28;20033;-80
2021/11/21 00:21:29;;;;;;;74.93;36.72;;;10.40;99.90;;;;;;5066983;28;20024;-80
2021/11/21 00:23:56;;;;;;;81.30;39.13;;;10.40;99.90;;;;;;5051507;28;20041;-80
2021/11/21 00:26:21;;;;;;;68.18;36.80;;;10.40;99.90;;;;;;5050042;28;20028;-80
2021/11/21 00:28:49;;;;;;;75.32;37.33;;;10.40;99.90;;;;;;5064239;28;20107;-80
2021/11/21 00:31:15;;;;;;;67.78;34.83;;;10.30;99.90;;;;;;5055322;28;20111;-80
2021/11/21 00:33:41;;;;;;;66.35;32.97;;;10.30;99.90;;;;;;5072713;28;20021;-82
2021/11/21 00:36:07;;;;;;;87.30;39.78;;;10.40;99.90;;;;;;5056236;28;20121;-80
2021/11/21 00:38:33;;;;;;;68.90;36.63;;;10.30;99.90;;;;;;5066505;28;20444;-79
2021/11/21 00:40:58;;;;;;;68.90;34.15;;;10.30;99.90;;;;;;5047984;28;20111;-79
2021/11/21 00:43:24;;;;;;;65.85;34.70;;;10.30;99.90;;;;;;5048969;28;20025;-79
2021/11/21 00:45:50;;;;;;;65.07;32.05;;;10.30;99.90;;;;;;5051257;28;20095;-80
2021/11/21 00:48:21;;;;;;;65.70;33.60;;;10.30;99.90;;;;;;5044283;28;20117;-80
2021/11/21 00:50:49;;;;;;;61.72;30.73;;;10.40;99.90;;;;;;5047429;28;20036;-80
2021/11/21 00:53:15;;;;;;;63.65;33.15;;;10.30;99.90;;;;;;5044034;28;20021;-79
2021/11/21 00:55:45;;;;;;;64.25;32.70;;;10.30;99.90;;;;;;5051745;28;20054;-80
2021/11/21 00:58:12;;;;;;;82.68;33.53;;;10.30;99.90;;;;;;5045550;28;20101;-80
2021/11/21 01:00:41;;;;;;;57.58;30.13;;;10.30;99.90;;;;;;5047582;28;20040;-80
2021/11/21 01:03:08;;;;;;;57.70;30.92;;;10.20;99.90;;;;;;5049663;28;20523;-79
2021/11/21 01:05:35;;;;;;;55.30;30.15;;;10.30;99.90;;;;;;5046295;28;20073;-80
2021/11/21 01:08:00;;;;;;;55.55;28.48;;;10.20;99.90;;;;;;5042616;28;20155;-80
2021/11/21 01:10:26;;;;;;;65.40;30.15;;;10.30;99.90;;;;;;5054250;28;20107;-80
2021/11/21 01:12:54;;;;;;;59.63;27.63;;;10.30;99.90;;;;;;5059069;28;20021;-80
2021/11/21 01:15:22;;;;;;;53.67;28.00;;;10.20;99.90;;;;;;5068401;28;20073;-80
2021/11/21 01:17:50;;;;;;;51.33;26.95;;;10.20;99.90;;;;;;5048602;28;20031;-79
2021/11/21 01:20:18;;;;;;;52.53;27.67;;;10.30;99.90;;;;;;5065252;28;20021;-80
2021/11/21 01:22:44;;;;;;;58.13;26.88;;;10.30;99.90;;;;;;5056517;28;20033;-80
2021/11/21 01:25:12;;;;;;;62.35;28.95;;;10.30;99.90;;;;;;5047378;28;20592;-79
2021/11/21 01:27:40;;;;;;;47.20;24.70;;;10.30;99.90;;;;;;5044271;28;20026;-79
2021/11/21 01:30:10;;;;;;;54.70;26.77;;;10.20;99.90;;;;;;5049059;28;20027;-80
2021/11/21 01:32:36;;;;;;;53.88;25.95;;;10.20;99.90;;;;;;5062114;28;20021;-80
2021/11/21 01:35:03;;;;;;;48.60;25.05;;;10.30;99.90;;;;;;5068400;28;20150;-80
2021/11/21 01:37:29;;;;;;;48.15;25.65;;;10.30;99.90;;;;;;5055590;28;20029;-79
2021/11/21 01:39:55;;;;;;;55.85;28.17;;;10.30;99.90;;;;;;5060278;28;20020;-79
2021/11/21 01:42:22;;;;;;;53.03;25.27;;;10.30;99.90;;;;;;5064572;28;20033;-79
2021/11/21 01:44:48;;;;;;;49.03;24.95;;;10.20;99.90;;;;;;5063187;28;20033;-78
2021/11/21 01:47:14;;;;;;;53.15;24.85;;;10.30;99.90;;;;;;5041309;28;20075;-79
2021/11/21 01:49:40;;;;;;;47.60;25.02;;;10.20;99.90;;;;;;5058625;28;20485;-80
2021/11/21 01:52:07;;;;;;;53.63;25.10;;;10.30;99.90;;;;;;5066843;28;20120;-79
2021/11/21 01:54:33;;;;;;;47.60;25.55;;;10.20;99.90;;;;;;5062589;28;20060;-79
2021/11/21 01:56:59;;;;;;;46.60;24.77;;;10.20;99.90;;;;;;5058287;28;20025;-78
2021/11/21 01:59:25;;;;;;;57.30;25.88;;;10.30;99.90;;;;;;5072353;28;20028;-80
2021/11/21 02:01:51;;;;;;;55.35;25.58;;;10.30;99.90;;;;;;5064268;28;20029;-79
2021/11/21 02:04:17;;;;;;;43.65;22.98;;;10.30;99.90;;;;;;5062422;28;20182;-79
2021/11/21 02:06:43;;;;;;;42.42;22.05;;;10.20;99.90;;;;;;5062347;28;20527;-78
2021/11/21 02:09:08;;;;;;;45.60;23.17;;;10.20;99.90;;;;;;5069328;28;20032;-79
2021/11/21 02:11:34;;;;;;;52.28;23.67;;;10.20;99.90;;;;;;5055710;28;20715;-79
2021/11/21 02:14:01;;;;;;;46.58;24.02;;;10.30;99.90;;;;;;5062135;28;20092;-79
2021/11/21 02:16:29;;;;;;;53.70;24.95;;;10.30;99.90;;;;;;5052424;28;20033;-78
2021/11/21 02:18:54;;;;;;;44.40;22.38;;;10.30;99.90;;;;;;5059592;28;20020;-78
2021/11/21 02:21:21;;;;;;;47.92;23.33;;;10.20;99.90;;;;;;5045705;28;20025;-79
2021/11/21 02:23:49;;;;;;;49.92;24.85;;;10.20;99.90;;;;;;5041110;28;20036;-79
2021/11/21 02:26:17;;;;;;;55.30;25.42;;;10.20;99.90;;;;;;5064226;28;20021;-78
2021/11/21 02:28:44;;;;;;;51.60;24.88;;;10.20;99.90;;;;;;5064538;28;20020;-79
2021/11/21 02:31:11;;;;;;;49.15;22.65;;;10.20;99.90;;;;;;5050869;28;20037;-78
2021/11/21 02:33:38;;;;;;;54.20;23.88;;;10.20;99.90;;;;;;5069292;28;20515;-79
2021/11/21 02:36:05;;;;;;;60.28;23.25;;;10.20;99.90;;;;;;5052241;28;20017;-79
2021/11/21 02:38:33;;;;;;;46.65;22.48;;;10.20;99.90;;;;;;5061762;28;20025;-79
2021/11/21 02:41:01;;;;;;;43.63;21.90;;;10.20;99.90;;;;;;5057989;28;20029;-80
2021/11/21 02:43:27;;;;;;;48.47;23.42;;;10.10;99.90;;;;;;5067155;28;20374;-79
2021/11/21 02:45:54;;;;;;;46.97;22.55;;;10.20;99.90;;;;;;5051244;28;20485;-80
2021/11/21 02:48:23;;;;;;;49.15;22.25;;;10.20;99.90;;;;;;5046930;28;20480;-79
2021/11/21 02:50:49;;;;;;;49.58;22.33;;;10.30;99.90;;;;;;5066076;28;20089;-79
2021/11/21 02:53:16;;;;;;;46.35;21.02;;;10.30;99.90;;;;;;5057140;28;20442;-79
2021/11/21 02:55:42;;;;;;;46.35;21.63;;;10.30;99.90;;;;;;5036544;28;20112;-79
2021/11/21 02:58:08;;;;;;;46.45;22.25;;;10.20;99.90;;;;;;5059048;28;20099;-79
2021/11/21 03:00:36;;;;;;;45.35;22.00;;;10.30;99.90;;;;;;5062508;28;20517;-79
2021/11/21 03:03:02;;;;;;;42.35;20.30;;;10.30;99.90;;;;;;5066208;28;20461;-78
2021/11/21 03:05:28;;;;;;;53.47;21.77;;;10.20;99.90;;;;;;5068515;28;20040;-79
2021/11/21 03:07:54;;;;;;;44.40;20.50;;;10.20;99.90;;;;;;5058270;28;20028;-79
2021/11/21 03:10:20;;;;;;;46.50;21.70;;;10.20;99.90;;;;;;5063033;28;20024;-79
2021/11/21 03:13:00;;;;;;;41.63;20.17;;;10.20;99.90;;;;;;5043181;28;20048;-78
2021/11/21 03:15:26;;;;;;;45.05;19.80;;;10.20;99.90;;;;;;5053739;28;20081;-78
2021/11/21 03:17:53;;;;;;;43.50;20.88;;;10.30;99.90;;;;;;5049726;28;20377;-78
2021/11/21 03:20:31;;;;;;;39.95;19.65;;;10.30;99.90;;;;;;5062202;28;20025;-79
2021/11/21 03:22:58;;;;;;;47.05;20.77;;;10.30;99.90;;;;;;5066926;28;20465;-79
2021/11/21 03:25:24;;;;;;;42.28;20.15;;;10.30;99.90;;;;;;5056514;28;20039;-78
2021/11/21 03:27:50;;;;;;;49.30;21.50;;;10.20;99.90;;;;;;5061031;28;20025;-78
2021/11/21 03:30:21;;;;;;;48.90;21.85;;;10.20;99.90;;;;;;5048314;28;20027;-78
2021/11/21 03:32:48;;;;;;;49.58;21.85;;;10.20;99.90;;;;;;5071860;28;20028;-78
2021/11/21 03:35:14;;;;;;;49.20;22.88;;;10.20;99.90;;;;;;5057328;28;20021;-78
2021/11/21 03:37:41;;;;;;;44.15;21.08;;;10.30;99.90;;;;;;5039651;28;20107;-79
2021/11/21 03:40:11;;;;;;;51.60;22.50;;;10.30;99.90;;;;;;5065588;28;20028;-79
2021/11/21 03:42:37;;;;;;;64.70;26.60;;;10.30;99.90;;;;;;5064158;28;20532;-79
2021/11/21 03:45:04;;;;;;;68.43;25.17;;;10.20;99.90;;;;;;5056047;28;20029;-79
2021/11/21 03:47:30;;;;;;;61.65;25.05;;;10.30;99.90;;;;;;5045863;28;20021;-78
2021/11/21 03:49:55;;;;;;;72.85;26.40;;;10.20;99.90;;;;;;5059792;28;20027;-78
2021/11/21 03:52:21;;;;;;;69.25;27.92;;;10.20;99.90;;;;;;5062480;28;20075;-78
2021/11/21 03:54:47;;;;;;;58.97;25.20;;;10.20;99.90;;;;;;5065223;28;20033;-78
2021/11/21 03:57:13;;;;;;;71.85;27.80;;;10.20;99.90;;;;;;5035391;28;20028;-78
2021/11/21 03:59:39;;;;;;;61.03;26.33;;;10.20;99.90;;;;;;5067923;28;20024;-78
2021/11/21 04:02:04;;;;;;;64.03;26.83;;;10.20;99.90;;;;;;5057793;28;20044;-79
2021/11/21 04:04:31;;;;;;;73.40;27.77;;;10.20;99.90;;;;;;5052307;28;20043;-77
2021/11/21 04:06:57;;;;;;;67.72;27.27;;;10.30;99.90;;;;;;5065963;28;20021;-79
2021/11/21 04:09:23;;;;;;;71.05;27.98;;;10.30;99.90;;;;;;5063138;28;20036;-77
2021/11/21 04:11:49;;;;;;;61.50;26.35;;;10.20;99.90;;;;;;5056251;28;20020;-78
2021/11/21 04:14:16;;;;;;;68.28;25.45;;;10.20;99.90;;;;;;5061412;28;20432;-78
2021/11/21 04:16:42;;;;;;;59.22;25.45;;;10.20;99.90;;;;;;5045010;28;20022;-77
2021/11/21 04:19:09;;;;;;;59.00;26.02;;;10.20;99.90;;;;;;5062754;28;20036;-78
2021/11/21 04:21:35;;;;;;;57.42;25.45;;;10.20;99.90;;;;;;5053066;28;20025;-79
2021/11/21 04:24:01;;;;;;;73.00;25.85;;;10.20;99.90;;;;;;5042127;28;20128;-79
2021/11/21 04:26:27;;;;;;;58.85;24.85;;;10.30;99.90;;;;;;5061808;28;20048;-78
2021/11/21 04:28:53;;;;;;;60.17;25.35;;;10.30;99.90;;;;;;5058467;28;20075;-79
2021/11/21 04:31:19;;;;;;;57.95;25.38;;;10.20;99.90;;;;;;5053142;28;20026;-78
2021/11/21 04:33:44;;;;;;;53.53;24.48;;;10.30;99.90;;;;;;5043679;28;20016;-78
2021/11/21 04:36:10;;;;;;;65.38;27.13;;;10.30;99.90;;;;;;5059795;28;20048;-78
2021/11/21 04:38:36;;;;;;;62.85;25.25;;;10.30;99.90;;;;;;5060938;28;20028;-81
2021/11/21 04:41:02;;;;;;;56.20;24.38;;;10.20;99.90;;;;;;5056717;28;20087;-78
2021/11/21 04:43:28;;;;;;;65.53;28.08;;;10.20;99.90;;;;;;5068209;28;20028;-78
2021/11/21 04:45:55;;;;;;;55.38;24.38;;;10.20;99.90;;;;;;5064654;28;20032;-78
2021/11/21 04:48:22;;;;;;;48.17;22.75;;;10.30;99.90;;;;;;5032317;28;20374;-78
2021/11/21 04:50:48;;;;;;;62.45;25.00;;;10.30;99.90;;;;;;5057527;28;20068;-78
2021/11/21 04:53:14;;;;;;;69.45;26.33;;;10.20;99.90;;;;;;5054565;28;20079;-78
2021/11/21 04:55:39;;;;;;;59.47;24.60;;;10.20;99.90;;;;;;5062404;28;20249;-78
2021/11/21 04:58:05;;;;;;;68.63;26.75;;;10.20;99.90;;;;;;5065067;28;20458;-79
2021/11/21 05:00:31;;;;;;;52.78;24.85;;;10.20;99.90;;;;;;5061807;28;20025;-78
2021/11/21 05:02:57;;;;;;;56.38;24.95;;;10.20;99.90;;;;;;5057285;28;20036;-79
2021/11/21 05:05:25;;;;;;;61.67;25.05;;;10.20;99.90;;;;;;5066925;28;20036;-78
2021/11/21 05:07:52;;;;;;;67.15;27.20;;;10.20;99.90;;;;;;5056184;28;20716;-77
2021/11/21 05:10:19;;;;;;;57.70;24.58;;;10.20;99.90;;;;;;5051125;28;20029;-78
2021/11/21 05:12:45;;;;;;;62.65;26.35;;;10.20;99.90;;;;;;5032006;28;20026;-78
2021/11/21 05:15:19;;;;;;;67.35;27.92;;;10.20;99.90;;;;;;5047159;28;20028;-78
2021/11/21 05:17:46;;;;;;;65.68;27.17;;;10.20;99.90;;;;;;5044651;28;20032;-78
2021/11/21 05:20:13;;;;;;;65.70;25.88;;;10.30;99.90;;;;;;5067658;28;20009;-78
2021/11/21 05:22:39;;;;;;;61.65;25.60;;;10.20;99.90;;;;;;5067119;28;20028;-78
2021/11/21 05:25:06;;;;;;;60.15;25.60;;;10.20;99.90;;;;;;5072567;28;20047;-78
2021/11/21 05:27:31;;;;;;;60.33;26.60;;;10.20;99.90;;;;;;5054096;28;20531;-78
2021/11/21 05:29:57;;;;;;;65.03;26.25;;;10.20;99.90;;;;;;5068842;28;20037;-78
2021/11/21 05:32:23;;;;;;;63.33;26.67;;;10.20;99.90;;;;;;5064446;28;20021;-78
2021/11/21 05:34:51;;;;;;;66.88;27.45;;;10.20;99.90;;;;;;5075380;28;20029;-78
2021/11/21 05:37:19;;;;;;;54.53;24.13;;;10.20;99.90;;;;;;5058386;28;20099;-78
2021/11/21 05:39:44;;;;;;;56.58;25.10;;;10.20;99.90;;;;;;5060407;28;20020;-78
2021/11/21 05:42:10;;;;;;;57.17;25.02;;;10.30;99.90;;;;;;5066670;28;20056;-78
2021/11/21 05:44:36;;;;;;;58.88;24.42;;;10.30;99.90;;;;;;5056643;28;20044;-78
2021/11/21 05:47:02;;;;;;;57.55;25.52;;;10.30;99.90;;;;;;5058140;28;20055;-77
2021/11/21 05:49:28;;;;;;;64.75;26.65;;;10.30;99.90;;;;;;5071227;28;20060;-78
2021/11/21 05:51:54;;;;;;;64.07;25.77;;;10.30;99.90;;;;;;5058437;28;20052;-78
2021/11/21 05:54:19;;;;;;;64.00;27.85;;;10.30;99.90;;;;;;5064201;28;20029;-78
2021/11/21 05:56:45;;;;;;;73.78;28.88;;;10.40;99.90;;;;;;5054187;28;20029;-78
2021/11/21 05:59:12;;;;;;;62.15;26.40;;;10.40;99.90;;;;;;5054644;28;20474;-78
2021/11/21 06:01:37;;;;;;;69.95;26.00;;;10.40;99.90;;;;;;5071104;28;20036;-78
2021/11/21 06:04:04;;;;;;;59.42;24.67;;;10.30;99.90;;;;;;5061228;28;20033;-79
2021/11/21 06:06:30;;;;;;;68.47;26.02;;;10.40;99.90;;;;;;5064567;28;20425;-78
2021/11/21 06:08:55;;;;;;;61.35;25.98;;;10.40;99.90;;;;;;5053811;28;20029;-78
2021/11/21 06:11:21;;;;;;;61.45;25.65;;;10.40;99.90;;;;;;5070697;28;20035;-78
2021/11/21 06:13:47;;;;;;;56.58;24.73;;;10.30;99.90;;;;;;5054465;28;20013;-78
2021/11/21 06:16:12;;;;;;;71.28;26.88;;;10.30;99.90;;;;;;5058721;28;20388;-77
2021/11/21 06:18:38;;;;;;;56.60;25.17;;;10.40;99.90;;;;;;5063492;28;20040;-77
2021/11/21 06:21:04;;;;;;;61.55;25.17;;;10.30;99.90;;;;;;5071869;28;20460;-78
2021/11/21 06:23:33;;;;;;;69.68;27.42;;;10.30;99.90;;;;;;5070018;28;20021;-78
2021/11/21 06:26:01;;;;;;;68.63;27.48;;;10.30;99.90;;;;;;5065490;28;20035;-79
2021/11/21 06:28:26;;;;;;;57.65;25.05;;;10.30;99.90;;;;;;5064100;28;20013;-79
2021/11/21 06:30:52;;;;;;;59.25;24.73;;;10.30;99.90;;;;;;5055891;28;20088;-79
2021/11/21 06:33:19;;;;;;;58.70;23.77;;;10.30;99.90;;;;;;5033798;28;20017;-79
2021/11/21 06:35:45;;;;;;;58.55;24.95;;;10.40;99.90;;;;;;5042207;28;20082;-79
2021/11/21 06:38:11;;;;;;;55.67;24.60;;;10.50;99.90;;;;;;5065788;28;20071;-80
2021/11/21 06:40:37;;;;;;;55.42;22.80;;;10.40;99.90;;;;;;5060320;28;20037;-79
2021/11/21 06:43:03;;;;;;;50.13;22.88;;;10.50;99.90;;;;;;5058863;28;20028;-80
2021/11/21 06:45:29;;;;;;;55.22;24.38;;;10.40;99.90;;;;;;5070082;28;20727;-79
2021/11/21 06:47:55;;;;;;;50.80;23.17;;;10.30;99.90;;;;;;5052225;28;20020;-79
2021/11/21 06:50:21;;;;;;;54.40;25.27;;;10.30;99.90;;;;;;5064592;28;20503;-79
2021/11/21 06:52:47;;;;;;;72.00;32.63;;;10.30;99.90;;;;;;5063614;28;20024;-80
2021/11/21 06:55:14;;;;;;;83.90;38.33;;;10.30;99.90;;;;;;5059888;28;20479;-79
2021/11/21 06:57:40;;;;;;;97.35;43.40;;;10.30;99.90;;;;;;5056755;28;20017;-78
2021/11/21 07:00:16;;;;;;;107.30;49.17;;;10.40;99.90;;;;;;5066205;28;20060;-79
2021/11/21 07:02:42;;;;;;;104.22;48.40;;;10.40;99.90;;;;;;5065224;28;20025;-79
2021/11/21 07:05:08;;;;;;;101.15;48.70;;;10.40;99.90;;;;;;5071904;28;20050;-79
2021/11/21 07:07:36;;;;;;;105.30;46.28;;;10.50;99.90;;;;;;5055588;28;20465;-79
2021/11/21 07:10:03;;;;;;;113.97;43.05;;;10.50;99.90;;;;;;5066933;28;20028;-80
2021/11/21 07:12:29;;;;;;;66.72;31.35;;;10.40;99.90;;;;;;5053427;28;20017;-82
2021/11/21 07:14:55;;;;;;;52.45;27.13;;;10.40;99.90;;;;;;5052018;28;20036;-80
2021/11/21 07:17:20;;;;;;;45.08;21.77;;;10.40;99.90;;;;;;5049542;28;20018;-79
2021/11/21 07:19:46;;;;;;;42.15;19.63;;;10.40;99.90;;;;;;5068833;28;20036;-79
2021/11/21 07:22:13;;;;;;;46.30;20.27;;;10.40;99.90;;;;;;5060907;28;20028;-80
2021/11/21 07:24:38;;;;;;;37.28;18.65;;;10.50;99.90;;;;;;5060987;28;20551;-79
2021/11/21 07:27:04;;;;;;;37.97;16.75;;;10.50;99.90;;;;;;5065047;28;20100;-78
2021/11/21 07:29:30;;;;;;;42.70;18.20;;;10.50;99.90;;;;;;5038156;28;20766;-79
2021/11/21 07:32:02;;;;;;;31.92;15.80;;;10.50;99.90;;;;;;5067276;28;20025;-78
2021/11/21 07:34:28;;;;;;;39.90;15.75;;;10.50;99.90;;;;;;5061452;28;20025;-80
2021/11/21 07:36:55;;;;;;;33.17;15.32;;;10.50;99.90;;;;;;5059899;28;20133;-79
2021/11/21 07:39:20;;;;;;;36.53;15.25;;;10.50;99.90;;;;;;5056004;28;20086;-79
2021/11/21 07:41:46;;;;;;;29.77;12.75;;;10.60;99.90;;;;;;5068259;28;20013;-79
2021/11/21 07:44:12;;;;;;;22.75;11.30;;;10.60;99.90;;;;;;5046893;28;20041;-79
2021/11/21 07:46:39;;;;;;;22.92;11.23;;;10.60;99.90;;;;;;5045159;28;20025;-78
2021/11/21 07:49:05;;;;;;;23.52;11.90;;;10.70;99.90;;;;;;5050854;28;20036;-79
2021/11/21 07:51:31;;;;;;;24.30;11.52;;;10.70;99.90;;;;;;5043934;28;20032;-78
2021/11/21 07:53:57;;;;;;;26.58;12.10;;;10.70;99.90;;;;;;5040880;28;20056;-81
2021/11/21 07:56:23;;;;;;;22.70;10.98;;;10.80;99.90;;;;;;5042922;28;20369;-79
2021/11/21 07:58:48;;;;;;;26.48;12.32;;;10.80;99.90;;;;;;5039986;28;20080;-79
2021/11/21 08:01:15;;;;;;;29.88;13.55;;;10.80;99.90;;;;;;5042224;28;20410;-79
2021/11/21 08:03:41;;;;;;;31.30;12.32;;;10.80;99.90;;;;;;5046783;28;20104;-78
2021/11/21 08:06:07;;;;;;;29.88;12.27;;;10.80;99.90;;;;;;5048040;28;20027;-79
2021/11/21 08:08:33;;;;;;;44.78;14.43;;;10.80;99.90;;;;;;5042427;28;20021;-79
2021/11/21 08:10:59;;;;;;;61.28;15.95;;;10.90;99.90;;;;;;5043241;28;20482;-78
2021/11/21 08:13:26;;;;;;;33.30;14.38;;;10.90;99.90;;;;;;5040379;28;20078;-78
2021/11/21 08:15:56;;;;;;;35.95;14.95;;;11.00;99.90;;;;;;5038216;28;20033;-79
2021/11/21 08:18:22;;;;;;;33.47;15.63;;;10.90;99.90;;;;;;5039514;28;20095;-79
2021/11/21 08:20:48;;;;;;;31.23;14.35;;;11.00;99.90;;;;;;5048876;28;20458;-79
2021/11/21 08:23:14;;;;;;;30.60;14.43;;;10.90;99.90;;;;;;5039536;28;20083;-78
2021/11/21 08:25:40;;;;;;;35.85;15.57;;;11.10;99.90;;;;;;5042035;28;20033;-79
2021/11/21 08:28:06;;;;;;;38.22;15.75;;;11.10;99.90;;;;;;5040498;28;20021;-79
2021/11/21 08:30:37;;;;;;;33.67;16.83;;;11.00;99.90;;;;;;5039363;28;20029;-79
2021/11/21 08:33:05;;;;;;;47.13;19.48;;;11.10;99.90;;;;;;5041769;28;20024;-78
2021/11/21 08:35:31;;;;;;;37.13;18.88;;;11.10;99.90;;;;;;5040030;28;20109;-80
2021/11/21 08:37:57;;;;;;;57.72;20.92;;;11.10;99.90;;;;;;5042763;28;20783;-81
2021/11/21 08:40:23;;;;;;;46.42;18.30;;;11.10;99.90;;;;;;5043784;28;20502;-80
2021/11/21 08:42:48;;;;;;;37.28;17.27;;;11.10;99.90;;;;;;5044456;28;20381;-80
2021/11/21 08:45:14;;;;;;;35.28;17.05;;;11.20;99.90;;;;;;5043709;28;20044;-82
2021/11/21 08:47:41;;;;;;;40.92;17.52;;;11.10;99.90;;;;;;5041405;28;20489;-82
2021/11/21 08:50:09;;;;;;;30.25;16.05;;;11.10;99.90;;;;;;5046511;28;20429;-84
2021/11/21 08:52:36;;;;;;;36.00;17.38;;;11.20;99.90;;;;;;5047905;28;20416;-80
2021/11/21 08:55:04;;;;;;;39.50;18.55;;;11.20;99.90;;;;;;5051758;28;20052;-80
2021/11/21 08:57:30;;;;;;;36.42;17.40;;;11.20;99.90;;;;;;5045435;28;20032;-80
2021/11/21 08:59:56;;;;;;;33.17;17.00;;;11.20;99.90;;;;;;5047844;28;20017;-80
2021/11/21 09:02:22;;;;;;;37.88;17.02;;;11.20;99.90;;;;;;5050359;28;20029;-80
2021/11/21 09:04:48;;;;;;;41.42;18.10;;;11.30;99.90;;;;;;5048032;28;20035;-79
2021/11/21 09:07:13;;;;;;;41.50;17.30;;;11.30;99.90;;;;;;5048148;28;20021;-80
2021/11/21 09:09:39;;;;;;;38.90;16.88;;;11.30;99.90;;;;;;5047337;28;20033;-78
2021/11/21 09:12:05;;;;;;;42.40;18.38;;;11.20;99.90;;;;;;5044059;28;20036;-80
2021/11/21 09:14:31;;;;;;;40.00;17.65;;;11.20;99.90;;;;;;5043613;28;20017;-81
2021/11/21 09:17:00;;;;;;;38.60;16.45;;;11.30;99.90;;;;;;5049963;28;20032;-89
2021/11/21 09:19:26;;;;;;;43.85;18.98;;;11.30;99.90;;;;;;5053024;28;20068;-88
2021/11/21 09:22:05;;;;;;;49.70;20.10;;;11.30;99.90;;;;;;5056771;28;20048;-90
2021/11/21 09:24:32;;;;;;;57.83;21.05;;;11.40;99.90;;;;;;5036675;28;20098;-86
2021/11/21 09:26:57;;;;;;;43.42;18.58;;;11.30;99.90;;;;;;5040564;28;20073;-87
2021/11/21 09:29:26;;;;;;;40.88;17.40;;;11.30;99.90;;;;;;5039669;28;20060;-89
2021/11/21 09:31:54;;;;;;;44.13;18.45;;;11.30;99.90;;;;;;5045574;28;20028;-87
2021/11/21 09:34:20;;;;;;;45.72;19.35;;;11.40;99.90;;;;;;5061673;28;20092;-81
2021/11/21 09:36:45;;;;;;;45.15;19.50;;;11.40;99.90;;;;;;5043251;28;20527;-82
2021/11/21 09:39:12;;;;;;;55.03;20.23;;;11.40;99.90;;;;;;5037860;28;20532;-85
2021/11/21 09:41:40;;;;;;;49.22;19.13;;;11.40;99.90;;;;;;5054286;28;20025;-87
2021/11/21 09:44:06;;;;;;;39.60;16.52;;;11.40;99.90;;;;;;5053074;28;20025;-85
2021/11/21 09:46:33;;;;;;;33.92;16.15;;;11.40;99.90;;;;;;5045418;28;20048;-87
2021/11/21 09:48:59;;;;;;;46.38;18.83;;;11.40;99.90;;;;;;5059844;28;20025;-87
2021/11/21 09:51:25;;;;;;;46.17;17.85;;;11.50;99.90;;;;;;5045873;28;20030;-86
2021/11/21 09:53:51;;;;;;;41.55;16.80;;;11.50;99.90;;;;;;5045507;28;20027;-87
2021/11/21 09:56:17;;;;;;;47.90;17.25;;;11.50;99.90;;;;;;5063095;28;20017;-83
2021/11/21 09:58:44;;;;;;;38.50;16.23;;;11.50;99.90;;;;;;5066282;28;20078;-82
2021/11/21 10:01:31;;;;;;;39.17;17.52;;;11.50;99.90;;;;;;5072752;28;20017;-83
2021/11/21 10:03:56;;;;;;;37.47;16.48;;;11.50;99.90;;;;;;5048198;28;20108;-83
2021/11/21 10:06:34;;;;;;;39.75;17.08;;;11.60;99.90;;;;;;5044702;28;20025;-84
2021/11/21 10:09:00;;;;;;;32.35;14.02;;;11.50;99.90;;;;;;5045224;28;20029;-84
2021/11/21 10:11:26;;;;;;;34.67;13.82;;;11.60;99.90;;;;;;5050636;28;20036;-81
2021/11/21 10:13:55;;;;;;;33.65;15.10;;;11.60;99.90;;;;;;5046735;28;20480;-81
2021/11/21 10:16:31;;;;;;;35.78;13.73;;;11.60;99.90;;;;;;5045052;28;20030;-80
2021/11/21 10:19:11;;;;;;;30.80;12.23;;;11.60;99.90;;;;;;5045806;28;20367;-79
2021/11/21 10:21:48;;;;;;;30.85;13.07;;;11.60;99.90;;;;;;5052229;28;20122;-79
2021/11/21 10:24:30;;;;;;;29.92;11.70;;;11.60;99.90;;;;;;5049460;28;20037;-83
2021/11/21 10:27:16;;;;;;;29.20;10.73;;;11.70;99.90;;;;;;5044999;28;20473;-83
2021/11/21 10:29:47;;;;;;;24.92;10.20;;;11.70;99.90;;;;;;5049056;28;20025;-86
2021/11/21 10:32:19;;;;;;;21.40;10.32;;;11.80;99.90;;;;;;5054556;28;20024;-82
2021/11/21 10:34:53;;;;;;;24.92;10.13;;;11.80;99.90;;;;;;5060396;28;20029;-81
2021/11/21 10:37:26;;;;;;;23.23;9.35;;;11.70;99.90;;;;;;5052115;28;20025;-81
2021/11/21 10:39:52;;;;;;;29.15;10.15;;;11.70;99.90;;;;;;5039528;28;20385;-81
2021/11/21 10:42:23;;;;;;;20.30;8.32;;;11.80;99.90;;;;;;5046095;28;20017;-81
2021/11/21 10:44:50;;;;;;;23.73;8.77;;;11.70;99.90;;;;;;5046234;28;20091;-80
2021/11/21 10:47:17;;;;;;;25.80;8.30;;;11.70;99.90;;;;;;5046630;28;20027;-80
2021/11/21 10:49:43;;;;;;;20.98;7.13;;;11.70;99.90;;;;;;5047169;28;20020;-80
2021/11/21 10:52:14;;;;;;;17.73;6.35;;;11.70;99.90;;;;;;5050337;28;20063;-80
2021/11/21 10:54:54;;;;;;;18.50;6.68;;;11.70;99.90;;;;;;5043679;28;20025;-79
2021/11/21 10:57:36;;;;;;;18.33;5.55;;;11.70;99.90;;;;;;5045641;28;20461;-80
2021/11/21 11:00:14;;;;;;;22.67;5.32;;;11.70;99.90;;;;;;5041143;28;20399;-79
2021/11/21 11:02:42;;;;;;;17.02;4.80;;;11.70;99.90;;;;;;5044085;28;20029;-79
2021/11/21 11:05:12;;;;;;;21.45;4.55;;;11.70;99.90;;;;;;5043679;28;20035;-79
2021/11/21 11:07:42;;;;;;;15.80;4.28;;;11.80;99.90;;;;;;5058777;28;20111;-79
2021/11/21 11:10:13;;;;;;;15.80;3.88;;;11.70;99.90;;;;;;5065641;28;20021;-81
2021/11/21 11:12:45;;;;;;;18.55;4.03;;;11.80;99.90;;;;;;5060215;28;20043;-81
2021/11/21 11:15:11;;;;;;;14.88;4.00;;;11.80;99.90;;;;;;5043517;28;20517;-82
2021/11/21 11:17:37;;;;;;;16.52;4.30;;;11.80;99.90;;;;;;5053069;28;20017;-80
2021/11/21 11:20:09;;;;;;;14.70;3.67;;;11.80;99.90;;;;;;5064851;28;20381;-77
2021/11/21 11:22:36;;;;;;;14.88;4.47;;;11.80;99.90;;;;;;5062217;28;20032;-78
2021/11/21 11:25:05;;;;;;;14.18;3.42;;;11.80;99.90;;;;;;5051022;28;20485;-78
2021/11/21 11:27:53;;;;;;;20.20;4.32;;;11.80;99.90;;;;;;5049749;28;20047;-78
2021/11/21 11:30:30;;;;;;;16.88;3.53;;;11.80;99.90;;;;;;5060317;28;20503;-77
2021/11/21 11:33:12;;;;;;;17.27;4.10;;;11.90;99.90;;;;;;5065834;28;20031;-79
2021/11/21 11:35:44;;;;;;;14.35;4.20;;;11.80;99.90;;;;;;5055273;28;20059;-83
2021/11/21 11:38:20;;;;;;;9.07;3.67;;;11.90;99.90;;;;;;5066365;28;20046;-84
2021/11/21 11:40:50;;;;;;;11.13;3.67;;;11.90;99.90;;;;;;5059644;28;20032;-83
2021/11/21 11:43:16;;;;;;;15.98;3.95;;;12.00;99.90;;;;;;5067535;28;20062;-83
2021/11/21 11:45:43;;;;;;;23.50;4.20;;;12.10;99.90;;;;;;5055738;28;20040;-79
2021/11/21 11:48:45;;;;;;;15.10;4.05;;;12.10;99.90;;;;;;5042976;28;20590;-79
2021/11/21 11:51:20;;;;;;;11.05;4.00;;;12.10;99.90;;;;;;5066708;28;20140;-79
2021/11/21 11:53:57;;;;;;;15.48;4.88;;;12.10;99.90;;;;;;5041144;28;20039;-79
2021/11/21 11:56:29;;;;;;;14.75;3.78;;;12.00;99.90;;;;;;5057956;28;20032;-80
2021/11/21 11:58:59;;;;;;;13.88;3.63;;;12.00;99.90;;;;;;5050485;28;20058;-78
2021/11/21 12:01:39;;;;;;;18.08;4.32;;;12.00;99.90;;;;;;5045084;28;20112;-78
2021/11/21 12:04:06;;;;;;;17.20;4.35;;;12.00;99.90;;;;;;5032642;28;20474;-79
2021/11/21 12:06:36;;;;;;;14.40;3.83;;;12.10;99.90;;;;;;5047705;28;20033;-79
2021/11/21 12:09:31;;;;;;;11.05;3.63;;;12.10;99.90;;;;;;5061407;28;20155;-78
2021/11/21 12:12:03;;;;;;;9.57;3.67;;;12.10;99.90;;;;;;5041893;28;20017;-79
2021/11/21 12:14:35;;;;;;;15.13;3.42;;;12.20;99.90;;;;;;5041969;28;20082;-80
2021/11/21 12:17:03;;;;;;;20.00;4.40;;;12.20;99.90;;;;;;5051178;28;20366;-79
2021/11/21 12:19:52;;;;;;;16.27;4.15;;;12.20;99.90;;;;;;5053251;28;20033;-80
2021/11/21 12:22:32;;;;;;;14.20;3.88;;;12.10;99.90;;;;;;5047438;28;20104;-79
2021/11/21 12:25:10;;;;;;;13.52;4.00;;;12.10;99.90;;;;;;5056293;28;20043;-79
2021/11/21 12:27:39;;;;;;;23.38;4.38;;;12.10;99.90;;;;;;5067798;28;20488;-79
2021/11/21 12:30:18;;;;;;;13.35;3.20;;;12.10;99.90;;;;;;5060980;28;20030;-78
2021/11/21 12:32:56;;;;;;;17.38;3.90;;;12.10;99.90;;;;;;5058095;28;20108;-79